Terminal Aerodrome Forecast
Issued by NWS El Paso, TX

Home | Current Version | Previous Version | Text Only | Print | Product List | Glossary On
Versions: 1 2 3 4 5 6 7 8 9 10 11 12 13 14 15 16 17 18 19 20 21 22 23 24
912
FTUS44 KEPZ 192324
TAFELP
TAF
KELP 192324Z 2000/2024 21009KT P6SM VCTS SCT070CB BKN200
      TEMPO 2000/2003 VRB25G40KT P6SM TSRA BKN040CB OVC070
     FM200600 16005KT P6SM FEW080 SCT150
     FM201800 26006KT P6SM SCT080=

USA.gov is the U.S. government's official web portal to all federal, state and local government web resources and services.